createdAt,value
2022-11-29T00:01:10.848Z,36.28
2022-11-29T00:03:37.684Z,34.60
2022-11-29T00:06:23.656Z,35.72
2022-11-29T00:08:50.928Z,36.05
2022-11-29T00:11:45.634Z,34.90
2022-11-29T00:14:15.351Z,35.72
2022-11-29T00:16:43.142Z,33.92
2022-11-29T00:19:12.013Z,34.85
2022-11-29T00:21:38.932Z,32.55
2022-11-29T00:24:07.984Z,33.70
2022-11-29T00:26:37.100Z,33.00
2022-11-29T00:29:04.550Z,35.47
2022-11-29T00:31:32.614Z,35.90
2022-11-29T00:34:01.457Z,37.47
2022-11-29T00:36:28.923Z,35.17
2022-11-29T00:38:56.025Z,39.13
2022-11-29T00:41:22.837Z,35.50
2022-11-29T00:43:49.587Z,35.45
2022-11-29T00:46:17.449Z,35.10
2022-11-29T00:48:44.267Z,35.53
2022-11-29T00:51:11.413Z,33.50
2022-11-29T00:53:38.535Z,35.30
2022-11-29T00:56:06.246Z,33.08
2022-11-29T00:58:35.758Z,35.72
2022-11-29T01:01:03.240Z,35.40
2022-11-29T01:03:30.489Z,34.58
2022-11-29T01:06:09.887Z,33.53
2022-11-29T01:08:36.834Z,32.97
2022-11-29T01:11:20.759Z,33.63
2022-11-29T01:13:48.411Z,36.03
2022-11-29T01:16:16.342Z,33.67
2022-11-29T01:18:43.934Z,34.13
2022-11-29T01:21:16.870Z,34.78
2022-11-29T01:23:44.652Z,33.95
2022-11-29T01:26:18.449Z,34.55
2022-11-29T01:28:47.695Z,33.97
2022-11-29T01:31:17.485Z,32.58
2022-11-29T01:33:44.223Z,32.20
2022-11-29T01:36:12.301Z,34.00
2022-11-29T01:38:39.610Z,32.47
2022-11-29T01:41:12.715Z,34.50
2022-11-29T01:44:00.971Z,32.90
2022-11-29T01:46:39.529Z,33.83
2022-11-29T01:49:21.593Z,31.55
2022-11-29T01:51:55.509Z,31.30
2022-11-29T01:54:22.718Z,31.73
2022-11-29T01:56:50.809Z,30.23
2022-11-29T01:59:28.811Z,30.58
2022-11-29T02:02:05.255Z,29.73
2022-11-29T02:04:35.615Z,32.67
2022-11-29T02:07:03.361Z,32.17
2022-11-29T02:09:30.296Z,30.98
2022-11-29T02:12:17.537Z,29.58
2022-11-29T02:15:05.348Z,29.27
2022-11-29T02:18:22.060Z,28.70
2022-11-29T02:21:05.558Z,27.73
2022-11-29T02:24:01.838Z,29.35
2022-11-29T02:26:58.101Z,29.83
2022-11-29T02:29:46.564Z,28.50
2022-11-29T02:32:44.627Z,28.15
2022-11-29T02:35:29.113Z,27.52
2022-11-29T02:38:06.327Z,29.35
2022-11-29T02:41:03.269Z,30.20
2022-11-29T02:43:51.384Z,31.65
2022-11-29T02:46:26.691Z,30.17
2022-11-29T02:48:59.241Z,31.08
2022-11-29T02:52:00.560Z,30.67
2022-11-29T02:54:48.590Z,29.77
2022-11-29T02:57:51.367Z,29.60
2022-11-29T03:00:22.707Z,29.63
2022-11-29T03:03:08.292Z,33.42
2022-11-29T03:05:47.131Z,33.60
2022-11-29T03:08:32.717Z,30.75
2022-11-29T03:11:22.723Z,28.05
2022-11-29T03:14:19.785Z,28.33
2022-11-29T03:17:07.357Z,31.33
2022-11-29T03:19:52.891Z,27.88
2022-11-29T03:22:34.030Z,26.13
2022-11-29T03:25:12.593Z,25.83
2022-11-29T03:27:39.258Z,26.73
2022-11-29T03:30:11.794Z,23.70
2022-11-29T03:33:05.018Z,27.35
2022-11-29T03:35:46.647Z,30.40
2022-11-29T03:38:21.619Z,26.40
2022-11-29T03:41:15.781Z,31.45
2022-11-29T03:44:01.541Z,29.83
2022-11-29T03:46:34.436Z,26.55
2022-11-29T03:49:14.985Z,26.35
2022-11-29T03:54:52.943Z,27.73
2022-11-29T03:57:29.532Z,51.38
2022-11-29T04:00:05.950Z,38.50
2022-11-29T04:03:05.013Z,33.58
2022-11-29T04:06:02.104Z,31.08
2022-11-29T04:08:47.787Z,29.88
2022-11-29T04:11:31.904Z,28.20
2022-11-29T04:14:52.473Z,30.20
2022-11-29T04:17:48.994Z,24.80
2022-11-29T04:20:46.815Z,29.25
2022-11-29T04:23:45.394Z,24.45
2022-11-29T04:26:49.498Z,26.02
2022-11-29T04:29:30.363Z,29.45
2022-11-29T04:32:23.729Z,27.95
2022-11-29T04:35:28.542Z,29.45
2022-11-29T04:38:11.039Z,27.55
2022-11-29T04:41:14.769Z,27.13
2022-11-29T04:44:07.074Z,25.80
2022-11-29T04:46:48.720Z,29.13
2022-11-29T04:49:25.616Z,24.48
2022-11-29T04:52:14.109Z,23.38
2022-11-29T04:55:08.087Z,22.80
2022-11-29T04:57:57.615Z,25.05
2022-11-29T05:00:25.160Z,24.17
2022-11-29T05:02:55.432Z,24.63
2022-11-29T05:05:46.957Z,23.45
2022-11-29T05:08:25.439Z,24.50
2022-11-29T05:11:14.296Z,23.92
2022-11-29T05:14:18.744Z,26.17
2022-11-29T05:17:20.067Z,23.30
2022-11-29T05:20:08.778Z,22.90
2022-11-29T05:23:00.268Z,21.85
2022-11-29T05:25:48.568Z,20.98
2022-11-29T05:28:43.778Z,23.17
2022-11-29T05:31:30.675Z,23.88
2022-11-29T05:34:16.199Z,24.08
2022-11-29T05:36:55.770Z,21.58
2022-11-29T05:40:00.492Z,23.58
2022-11-29T05:42:33.159Z,24.95
2022-11-29T05:45:03.556Z,27.52
2022-11-29T05:47:43.336Z,24.08
2022-11-29T05:50:40.963Z,22.60
2022-11-29T05:53:43.202Z,19.73
2022-11-29T05:56:40.540Z,18.58
2022-11-29T05:59:15.345Z,18.65
2022-11-29T06:02:26.345Z,18.88
2022-11-29T06:05:16.946Z,18.10
2022-11-29T06:07:51.989Z,18.75
2022-11-29T06:10:21.066Z,17.40
2022-11-29T06:13:34.066Z,16.02
2022-11-29T06:16:28.450Z,15.95
2022-11-29T06:19:17.167Z,14.98
2022-11-29T06:22:17.023Z,14.93
2022-11-29T06:24:47.855Z,14.32
2022-11-29T06:28:05.658Z,14.50
2022-11-29T06:31:16.931Z,14.55
2022-11-29T06:34:22.416Z,14.40
2022-11-29T06:36:54.099Z,12.77
2022-11-29T06:39:21.119Z,13.80
2022-11-29T06:41:48.874Z,13.07
2022-11-29T06:44:15.920Z,15.38
2022-11-29T06:46:51.581Z,18.08
2022-11-29T06:49:28.799Z,14.30
2022-11-29T06:52:22.567Z,17.13
2022-11-29T06:54:55.511Z,16.10
2022-11-29T06:57:48.781Z,16.50
2022-11-29T07:00:26.885Z,14.20
2022-11-29T07:03:31.890Z,14.82
2022-11-29T07:06:15.349Z,13.45
2022-11-29T07:08:43.678Z,12.48
2022-11-29T07:11:13.371Z,12.80
2022-11-29T07:13:40.478Z,11.55
2022-11-29T07:16:26.287Z,11.90
2022-11-29T07:19:08.051Z,11.35
2022-11-29T07:21:53.838Z,11.43
2022-11-29T07:24:23.645Z,11.75
2022-11-29T07:27:20.088Z,10.35
2022-11-29T07:30:05.259Z,11.25
2022-11-29T07:33:09.208Z,11.00
2022-11-29T07:36:10.910Z,10.50
2022-11-29T07:39:03.935Z,10.40
2022-11-29T07:41:57.438Z,10.75
2022-11-29T07:44:58.678Z,11.95
2022-11-29T07:47:25.397Z,10.90
2022-11-29T07:49:52.140Z,11.63
2022-11-29T07:52:20.087Z,11.73
2022-11-29T07:54:46.937Z,11.52
2022-11-29T07:57:14.894Z,11.50
2022-11-29T07:59:41.642Z,10.93
2022-11-29T08:02:11.911Z,11.00
2022-11-29T08:07:11.170Z,10.25
2022-11-29T08:09:37.953Z,11.13
2022-11-29T08:12:04.970Z,9.70
2022-11-29T08:14:33.320Z,9.60
2022-11-29T08:17:00.055Z,9.13
2022-11-29T08:19:26.851Z,8.70
2022-11-29T08:21:53.914Z,9.90
2022-11-29T08:24:20.802Z,9.02
2022-11-29T08:26:47.984Z,9.25
2022-11-29T08:29:15.281Z,9.48
2022-11-29T08:31:43.050Z,8.93
2022-11-29T08:34:10.736Z,9.43
2022-11-29T08:36:37.945Z,10.52
2022-11-29T08:39:09.174Z,8.20
2022-11-29T08:41:36.961Z,9.20
2022-11-29T08:44:05.718Z,8.98
2022-11-29T08:46:51.241Z,8.88
2022-11-29T08:49:18.204Z,9.27
2022-11-29T08:51:44.976Z,9.10
2022-11-29T08:54:11.982Z,9.75
2022-11-29T08:59:25.308Z,11.98
2022-11-29T09:01:52.137Z,12.45
2022-11-29T09:04:18.840Z,12.35
2022-11-29T09:06:49.532Z,11.60
2022-11-29T09:09:17.059Z,11.50
2022-11-29T09:11:48.218Z,11.60
2022-11-29T09:14:17.603Z,11.48
2022-11-29T09:16:44.358Z,12.00
2022-11-29T09:19:14.161Z,11.13
2022-11-29T09:21:40.965Z,10.68
2022-11-29T09:24:09.240Z,11.40
2022-11-29T09:26:38.017Z,11.88
2022-11-29T09:29:06.787Z,11.90
2022-11-29T09:31:34.446Z,12.05
2022-11-29T09:34:01.226Z,14.40
2022-11-29T09:36:29.568Z,12.77
2022-11-29T09:38:57.233Z,12.32
2022-11-29T09:41:51.802Z,12.43
2022-11-29T09:44:50.077Z,12.70
2022-11-29T09:47:22.753Z,13.23
2022-11-29T09:50:21.498Z,11.93
2022-11-29T09:53:27.122Z,10.98
2022-11-29T09:56:05.920Z,12.18
2022-11-29T09:58:43.759Z,12.55
2022-11-29T10:01:19.422Z,10.93
2022-11-29T10:03:51.905Z,11.40
2022-11-29T10:06:34.383Z,11.15
2022-11-29T10:09:43.920Z,11.40
2022-11-29T10:12:31.744Z,13.13
2022-11-29T10:15:04.883Z,11.70
2022-11-29T10:17:37.572Z,12.88
2022-11-29T10:20:09.890Z,11.48
2022-11-29T10:22:43.705Z,11.35
2022-11-29T10:25:21.401Z,11.52
2022-11-29T10:27:49.324Z,13.15
2022-11-29T10:30:16.778Z,12.82
2022-11-29T10:32:50.714Z,14.40
2022-11-29T10:35:19.634Z,12.73
2022-11-29T10:38:07.678Z,12.45
2022-11-29T10:40:37.774Z,11.50
2022-11-29T10:43:04.594Z,11.50
2022-11-29T10:45:40.489Z,12.00
2022-11-29T10:48:12.675Z,10.77
2022-11-29T10:50:45.564Z,11.10
2022-11-29T10:53:19.689Z,11.45
2022-11-29T10:55:53.589Z,9.82
2022-11-29T10:58:28.344Z,10.32
2022-11-29T11:01:08.372Z,9.90
2022-11-29T11:03:40.735Z,9.57
2022-11-29T11:06:13.398Z,10.68
2022-11-29T11:08:49.771Z,10.50
2022-11-29T11:11:33.261Z,10.38
2022-11-29T11:14:07.044Z,9.80
2022-11-29T11:16:37.540Z,11.13
2022-11-29T11:19:28.678Z,11.30
2022-11-29T11:22:00.728Z,11.18
2022-11-29T11:24:30.877Z,12.02
2022-11-29T11:26:58.042Z,13.00
2022-11-29T11:29:28.770Z,13.38
2022-11-29T11:31:57.977Z,12.85
2022-11-29T11:34:36.827Z,14.68
2022-11-29T11:37:20.514Z,12.95
2022-11-29T11:39:49.953Z,13.40
2022-11-29T11:42:38.923Z,14.35
2022-11-29T11:45:25.946Z,13.82
2022-11-29T11:47:56.394Z,14.25
2022-11-29T11:53:06.442Z,13.48
2022-11-29T11:55:53.497Z,13.75
2022-11-29T11:58:24.634Z,15.43
2022-11-29T12:01:10.138Z,13.80
2022-11-29T12:04:02.432Z,14.23
2022-11-29T12:06:40.439Z,13.75
2022-11-29T12:09:16.472Z,13.68
2022-11-29T12:12:01.341Z,14.35
2022-11-29T12:15:07.874Z,14.55
2022-11-29T12:17:44.246Z,14.82
2022-11-29T12:20:16.987Z,13.10
2022-11-29T12:22:58.368Z,14.10
2022-11-29T12:25:32.868Z,12.82
2022-11-29T12:27:59.777Z,12.88
2022-11-29T12:30:26.500Z,13.07
2022-11-29T12:33:23.855Z,13.65
2022-11-29T12:36:08.426Z,13.43
2022-11-29T12:39:03.870Z,13.88
2022-11-29T12:42:06.095Z,14.10
2022-11-29T12:44:43.103Z,13.52
2022-11-29T12:47:48.846Z,13.82
2022-11-29T12:50:39.896Z,12.80
2022-11-29T12:53:32.891Z,14.80
2022-11-29T12:56:23.969Z,13.77
2022-11-29T12:59:04.482Z,14.25
2022-11-29T13:04:25.632Z,13.98
2022-11-29T13:07:04.319Z,13.27
2022-11-29T13:09:55.966Z,13.00
2022-11-29T13:12:33.087Z,13.75
2022-11-29T13:15:06.773Z,13.40
2022-11-29T13:17:50.458Z,13.30
2022-11-29T13:20:32.118Z,14.07
2022-11-29T13:23:20.826Z,14.27
2022-11-29T13:25:54.421Z,13.93
2022-11-29T13:28:42.616Z,14.35
2022-11-29T13:31:22.624Z,14.05
2022-11-29T13:34:10.567Z,13.75
2022-11-29T13:37:04.784Z,13.10
2022-11-29T13:40:07.557Z,12.95
2022-11-29T13:42:58.380Z,13.95
2022-11-29T13:45:42.181Z,12.68
2022-11-29T13:48:33.173Z,13.02
2022-11-29T13:51:28.739Z,13.95
2022-11-29T13:53:57.505Z,12.20
2022-11-29T13:56:48.279Z,12.70
2022-11-29T13:59:30.236Z,13.13
2022-11-29T14:01:58.491Z,12.30
2022-11-29T14:04:38.622Z,13.25
2022-11-29T14:07:12.228Z,12.82
2022-11-29T14:09:48.458Z,11.98
2022-11-29T14:12:27.494Z,12.43
2022-11-29T14:15:02.797Z,11.52
2022-11-29T14:17:58.867Z,12.13
2022-11-29T14:20:26.417Z,12.27
2022-11-29T14:23:05.193Z,11.55
2022-11-29T14:25:56.612Z,12.20
2022-11-29T14:28:23.302Z,12.07
2022-11-29T14:30:58.351Z,12.52
2022-11-29T14:33:47.186Z,12.82
2022-11-29T14:36:21.949Z,12.45
2022-11-29T14:39:13.518Z,14.05
2022-11-29T14:41:49.107Z,13.25
2022-11-29T14:44:26.064Z,12.35
2022-11-29T14:47:21.943Z,13.65
2022-11-29T14:49:48.864Z,13.05
2022-11-29T14:52:38.025Z,13.43
2022-11-29T14:55:15.658Z,13.27
2022-11-29T14:57:48.066Z,12.88
2022-11-29T15:00:17.503Z,13.30
2022-11-29T15:03:11.108Z,13.85
2022-11-29T15:05:44.045Z,12.63
2022-11-29T15:08:29.563Z,14.57
2022-11-29T15:10:59.719Z,13.55
2022-11-29T15:13:31.983Z,12.95
2022-11-29T15:16:17.338Z,14.55
2022-11-29T15:19:06.479Z,16.17
2022-11-29T15:21:39.139Z,14.95
2022-11-29T15:24:23.660Z,15.13
2022-11-29T15:27:03.515Z,15.77
2022-11-29T15:29:32.265Z,14.98
2022-11-29T15:32:03.542Z,15.55
2022-11-29T15:34:40.244Z,15.20
2022-11-29T15:37:20.652Z,20.58
2022-11-29T15:39:47.379Z,16.25
2022-11-29T15:42:18.142Z,16.75
2022-11-29T15:44:49.260Z,17.67
2022-11-29T15:47:23.801Z,21.10
2022-11-29T15:49:52.222Z,17.05
2022-11-29T15:52:31.362Z,15.93
2022-11-29T15:55:04.753Z,17.33
2022-11-29T15:57:49.474Z,16.23
2022-11-29T16:00:23.108Z,18.23
2022-11-29T16:03:02.378Z,17.02
2022-11-29T16:05:36.861Z,16.23
2022-11-29T16:08:18.853Z,18.02
2022-11-29T16:10:50.396Z,16.23
2022-11-29T16:13:37.029Z,26.95
2022-11-29T16:16:20.426Z,23.60
2022-11-29T16:18:48.779Z,18.63
2022-11-29T16:21:30.875Z,18.10
2022-11-29T16:23:58.883Z,18.70
2022-11-29T16:26:39.734Z,18.88
2022-11-29T16:29:24.445Z,17.92
2022-11-29T16:31:52.111Z,18.50
2022-11-29T16:34:30.670Z,20.20
2022-11-29T16:37:06.586Z,18.85
2022-11-29T16:39:38.785Z,17.08
2022-11-29T16:42:24.904Z,16.38
2022-11-29T16:44:58.983Z,15.95
2022-11-29T16:47:28.473Z,17.27
2022-11-29T16:50:15.731Z,17.13
2022-11-29T16:52:42.870Z,17.13
2022-11-29T16:55:09.948Z,15.63
2022-11-29T16:57:37.096Z,16.55
2022-11-29T17:00:15.969Z,15.55
2022-11-29T17:02:43.258Z,14.68
2022-11-29T17:05:10.498Z,15.73
2022-11-29T17:07:39.950Z,15.70
2022-11-29T17:10:08.544Z,16.15
2022-11-29T17:12:35.247Z,17.27
2022-11-29T17:15:02.099Z,16.58
2022-11-29T17:17:35.884Z,16.08
2022-11-29T17:20:02.574Z,17.35
2022-11-29T17:22:30.250Z,14.93
2022-11-29T17:24:56.977Z,15.48
2022-11-29T17:27:24.007Z,15.77
2022-11-29T17:29:50.764Z,15.93
2022-11-29T17:32:19.828Z,17.05
2022-11-29T17:34:48.755Z,16.48
2022-11-29T17:37:15.434Z,16.10
2022-11-29T17:39:52.418Z,15.48
2022-11-29T17:42:21.195Z,15.25
2022-11-29T17:44:47.946Z,14.43
2022-11-29T17:47:15.144Z,15.32
2022-11-29T17:49:42.020Z,14.40
2022-11-29T17:52:08.727Z,13.65
2022-11-29T17:54:36.058Z,12.90
2022-11-29T17:57:04.554Z,13.38
2022-11-29T17:59:31.395Z,14.52
2022-11-29T18:01:58.210Z,14.38
2022-11-29T18:04:25.114Z,15.77
2022-11-29T18:06:51.827Z,15.27
2022-11-29T18:09:19.960Z,14.98
2022-11-29T18:11:49.391Z,14.18
2022-11-29T18:14:20.783Z,17.60
2022-11-29T18:16:47.732Z,15.45
2022-11-29T18:19:17.530Z,17.95
2022-11-29T18:21:44.733Z,17.60
2022-11-29T18:24:11.542Z,16.10
2022-11-29T18:26:39.190Z,15.10
2022-11-29T18:29:07.622Z,14.77
2022-11-29T18:31:37.191Z,13.25
2022-11-29T18:34:13.079Z,14.07
2022-11-29T18:36:43.806Z,13.07
2022-11-29T18:39:17.175Z,12.43
2022-11-29T18:41:47.098Z,13.82
2022-11-29T18:44:15.701Z,12.68
2022-11-29T18:46:44.659Z,13.20
2022-11-29T18:49:14.317Z,15.02
2022-11-29T18:51:44.422Z,12.98
2022-11-29T18:54:14.081Z,12.18
2022-11-29T18:56:43.892Z,11.82
2022-11-29T18:59:17.305Z,11.45
2022-11-29T19:01:48.045Z,11.68
2022-11-29T19:04:20.049Z,10.75
2022-11-29T19:06:47.106Z,12.23
2022-11-29T19:09:21.922Z,11.85
2022-11-29T19:11:55.504Z,11.68
2022-11-29T19:14:23.219Z,11.45
2022-11-29T19:16:50.256Z,11.10
2022-11-29T19:19:18.906Z,11.40
2022-11-29T19:21:45.741Z,10.77
2022-11-29T19:24:15.152Z,10.52
2022-11-29T19:26:51.329Z,11.17
2022-11-29T19:29:17.992Z,10.52
2022-11-29T19:31:44.824Z,11.02
2022-11-29T19:34:11.499Z,10.63
2022-11-29T19:36:43.069Z,10.57
2022-11-29T19:39:12.801Z,10.00
2022-11-29T19:41:42.504Z,12.13
2022-11-29T19:44:09.263Z,24.77
2022-11-29T19:46:39.441Z,18.30
2022-11-29T19:49:07.491Z,12.02
2022-11-29T19:51:34.880Z,11.48
2022-11-29T19:54:04.464Z,11.20
2022-11-29T19:56:32.434Z,11.50
2022-11-29T19:59:01.921Z,13.95
2022-11-29T20:01:39.709Z,13.23
2022-11-29T20:04:08.420Z,14.80
2022-11-29T20:06:35.705Z,23.23
2022-11-29T20:09:04.021Z,13.40
2022-11-29T20:11:30.725Z,13.85
2022-11-29T20:14:01.064Z,11.73
2022-11-29T20:16:30.062Z,10.88
2022-11-29T20:18:57.707Z,10.35
2022-11-29T20:21:30.029Z,9.98
2022-11-29T20:24:00.681Z,12.23
2022-11-29T20:26:29.919Z,10.60
2022-11-29T20:28:56.743Z,10.15
2022-11-29T20:31:23.756Z,10.85
2022-11-29T20:33:52.726Z,10.48
2022-11-29T20:36:34.439Z,10.32
2022-11-29T20:39:29.644Z,9.38
2022-11-29T20:42:28.840Z,10.85
2022-11-29T20:45:04.066Z,8.82
2022-11-29T20:47:54.290Z,9.50
2022-11-29T20:50:23.444Z,8.60
2022-11-29T20:52:56.687Z,9.33
2022-11-29T20:55:23.623Z,8.82
2022-11-29T20:57:50.415Z,9.57
2022-11-29T21:00:18.137Z,9.73
2022-11-29T21:02:44.879Z,10.65
2022-11-29T21:05:19.724Z,10.63
2022-11-29T21:07:46.739Z,10.93
2022-11-29T21:10:15.440Z,10.18
2022-11-29T21:12:45.516Z,9.48
2022-11-29T21:15:13.955Z,9.77
2022-11-29T21:17:42.199Z,10.13
2022-11-29T21:20:18.095Z,9.65
2022-11-29T21:23:08.777Z,9.55
2022-11-29T21:25:49.001Z,10.02
2022-11-29T21:28:16.630Z,9.93
2022-11-29T21:30:43.969Z,9.35
2022-11-29T21:33:11.662Z,8.38
2022-11-29T21:35:39.901Z,8.90
2022-11-29T21:38:10.101Z,9.40
2022-11-29T21:40:36.777Z,9.55
2022-11-29T21:43:03.511Z,9.73
2022-11-29T21:45:30.166Z,9.60
2022-11-29T21:48:00.597Z,10.02
2022-11-29T21:50:27.484Z,9.15
2022-11-29T21:52:54.138Z,9.65
2022-11-29T21:55:20.849Z,9.82
2022-11-29T21:57:47.536Z,9.52
2022-11-29T22:00:14.727Z,10.05
2022-11-29T22:02:41.521Z,9.38
2022-11-29T22:05:09.552Z,10.30
2022-11-29T22:07:36.407Z,9.38
2022-11-29T22:10:10.023Z,10.10
2022-11-29T22:12:51.392Z,9.65
2022-11-29T22:15:24.099Z,9.93
2022-11-29T22:17:51.750Z,9.68
2022-11-29T22:20:18.512Z,9.98
2022-11-29T22:22:47.625Z,10.18
2022-11-29T22:25:15.251Z,9.82
2022-11-29T22:27:42.045Z,9.95
2022-11-29T22:30:09.094Z,10.68
2022-11-29T22:32:35.810Z,10.57
2022-11-29T22:35:02.556Z,10.38
2022-11-29T22:37:29.287Z,10.68
2022-11-29T22:39:55.957Z,10.38
2022-11-29T22:42:22.674Z,10.02
2022-11-29T22:44:49.612Z,10.25
2022-11-29T22:47:16.440Z,10.30
2022-11-29T22:49:44.532Z,11.95
2022-11-29T22:52:11.285Z,14.80
2022-11-29T22:54:37.980Z,15.55
2022-11-29T22:57:04.829Z,14.52
2022-11-29T22:59:50.491Z,14.25
2022-11-29T23:02:17.278Z,15.70
2022-11-29T23:04:44.236Z,16.38
2022-11-29T23:07:11.078Z,16.02
2022-11-29T23:09:37.750Z,16.65
2022-11-29T23:12:04.674Z,15.95
2022-11-29T23:14:31.405Z,16.23
2022-11-29T23:16:58.188Z,16.45
2022-11-29T23:19:24.897Z,16.65
2022-11-29T23:21:52.001Z,16.52
2022-11-29T23:24:18.674Z,16.77
2022-11-29T23:26:47.333Z,16.45
2022-11-29T23:29:17.222Z,16.40
2022-11-29T23:31:44.343Z,16.60
2022-11-29T23:34:11.127Z,16.58
2022-11-29T23:36:37.948Z,18.17
2022-11-29T23:39:06.583Z,18.05
2022-11-29T23:41:34.410Z,18.73
2022-11-29T23:44:04.060Z,17.50
2022-11-29T23:46:30.773Z,18.60
2022-11-29T23:48:57.614Z,17.65
2022-11-29T23:51:24.467Z,17.92
2022-11-29T23:53:53.236Z,17.65
2022-11-29T23:56:21.101Z,18.73
2022-11-29T23:58:48.457Z,18.17
